createdAt,value
2018-03-29T00:01:33.076Z,9.37
2018-03-29T00:04:05.725Z,8.80
2018-03-29T00:06:38.191Z,8.43
2018-03-29T00:09:11.420Z,7.90
2018-03-29T00:11:43.911Z,7.23
2018-03-29T00:14:16.304Z,6.90
2018-03-29T00:16:49.008Z,6.90
2018-03-29T00:19:21.430Z,6.47
2018-03-29T00:21:53.953Z,6.70
2018-03-29T00:24:26.489Z,6.50
2018-03-29T00:26:59.120Z,5.83
2018-03-29T00:29:31.680Z,5.77
2018-03-29T00:32:04.399Z,4.80
2018-03-29T00:34:37.017Z,5.33
2018-03-29T00:37:10.276Z,4.70
2018-03-29T00:39:43.004Z,4.30
2018-03-29T00:42:15.487Z,3.67
2018-03-29T00:44:48.666Z,2.60
2018-03-29T00:47:22.622Z,3.10
2018-03-29T00:49:55.025Z,2.60
2018-03-29T00:52:27.698Z,2.47
2018-03-29T00:55:00.057Z,3.00
2018-03-29T00:57:32.593Z,3.70
2018-03-29T01:00:05.032Z,4.37
2018-03-29T01:02:37.566Z,5.20
2018-03-29T01:05:10.041Z,5.80
2018-03-29T01:07:42.477Z,5.70
2018-03-29T01:10:15.101Z,5.43
2018-03-29T01:12:47.815Z,5.13
2018-03-29T01:15:20.365Z,4.70
2018-03-29T01:17:52.801Z,4.03
2018-03-29T01:20:25.413Z,3.80
2018-03-29T01:22:57.783Z,3.40
2018-03-29T01:25:30.220Z,3.47
2018-03-29T01:28:03.441Z,3.43
2018-03-29T01:30:36.761Z,3.50
2018-03-29T01:33:10.665Z,3.57
2018-03-29T01:35:44.007Z,3.70
2018-03-29T01:38:17.304Z,3.70
2018-03-29T01:40:49.753Z,3.40
2018-03-29T01:43:22.361Z,3.60
2018-03-29T01:45:54.855Z,4.10
2018-03-29T01:48:28.868Z,4.10
2018-03-29T01:51:01.572Z,4.43
2018-03-29T01:53:34.236Z,3.53
2018-03-29T01:56:06.870Z,4.20
2018-03-29T01:58:39.397Z,3.90
2018-03-29T02:01:12.566Z,3.87
2018-03-29T02:03:45.286Z,3.93
2018-03-29T02:06:17.983Z,3.90
2018-03-29T02:08:51.087Z,4.23
2018-03-29T02:11:23.763Z,4.20
2018-03-29T02:13:56.220Z,4.63
2018-03-29T02:16:28.588Z,4.77
2018-03-29T02:19:01.233Z,4.47
2018-03-29T02:21:33.606Z,4.40
2018-03-29T02:24:06.027Z,5.03
2018-03-29T02:26:38.608Z,5.40
2018-03-29T02:29:11.010Z,5.10
2018-03-29T02:31:43.454Z,7.70
2018-03-29T02:34:16.753Z,8.47
2018-03-29T02:36:49.980Z,8.83
2018-03-29T02:39:24.113Z,11.00
2018-03-29T02:41:56.613Z,10.30
2018-03-29T02:44:29.389Z,11.20
2018-03-29T02:47:01.916Z,11.37
2018-03-29T02:49:34.642Z,11.60
2018-03-29T02:52:07.156Z,10.43
2018-03-29T02:54:39.868Z,12.07
2018-03-29T02:57:13.213Z,12.83
2018-03-29T02:59:45.612Z,11.80
2018-03-29T03:02:18.810Z,14.40
2018-03-29T03:04:52.064Z,15.30
2018-03-29T03:07:25.238Z,15.80
2018-03-29T03:09:58.423Z,16.40
2018-03-29T03:12:30.840Z,15.20
2018-03-29T03:15:04.165Z,16.43
2018-03-29T03:17:37.440Z,16.87
2018-03-29T03:20:10.893Z,16.17
2018-03-29T03:22:43.521Z,15.37
2018-03-29T03:25:16.088Z,15.20
2018-03-29T03:27:48.579Z,13.57
2018-03-29T03:30:21.152Z,12.43
2018-03-29T03:32:53.882Z,11.40
2018-03-29T03:35:26.258Z,12.43
2018-03-29T03:37:59.663Z,11.93
2018-03-29T03:40:32.174Z,12.03
2018-03-29T03:43:05.522Z,11.93
2018-03-29T03:45:37.986Z,11.23
2018-03-29T03:48:10.302Z,9.90
2018-03-29T03:50:43.057Z,11.77
2018-03-29T03:53:15.930Z,11.27
2018-03-29T03:55:49.222Z,10.90
2018-03-29T03:58:21.572Z,10.30
2018-03-29T04:00:53.962Z,10.03
2018-03-29T04:03:27.075Z,10.63
2018-03-29T04:05:59.846Z,9.10
2018-03-29T04:08:33.091Z,8.80
2018-03-29T04:11:05.468Z,9.17
2018-03-29T04:13:37.998Z,8.40
2018-03-29T04:16:10.507Z,9.17
2018-03-29T04:18:42.878Z,9.17
2018-03-29T04:21:15.442Z,9.90
2018-03-29T04:23:47.933Z,10.50
2018-03-29T04:26:21.112Z,10.57
2018-03-29T04:28:53.544Z,11.87
2018-03-29T04:31:26.862Z,12.60
2018-03-29T04:33:59.316Z,12.37
2018-03-29T04:36:32.081Z,12.17
2018-03-29T04:39:04.670Z,13.17
2018-03-29T04:41:37.058Z,13.07
2018-03-29T04:44:09.546Z,14.90
2018-03-29T04:46:42.971Z,14.50
2018-03-29T04:49:15.582Z,16.13
2018-03-29T04:51:48.146Z,15.10
2018-03-29T04:54:21.381Z,16.40
2018-03-29T04:56:53.741Z,16.77
2018-03-29T04:59:26.307Z,16.77
2018-03-29T05:01:58.957Z,17.63
2018-03-29T05:04:31.397Z,17.17
2018-03-29T05:07:03.857Z,17.80
2018-03-29T05:09:36.507Z,18.23
2018-03-29T05:12:08.843Z,18.33
2018-03-29T05:14:41.214Z,19.37
2018-03-29T05:17:13.577Z,19.87
2018-03-29T05:19:46.241Z,19.60
2018-03-29T05:22:18.897Z,21.83
2018-03-29T05:24:51.438Z,20.03
2018-03-29T05:27:25.042Z,21.47
2018-03-29T05:29:57.995Z,21.73
2018-03-29T05:32:30.554Z,22.43
2018-03-29T05:35:03.001Z,21.30
2018-03-29T05:37:35.586Z,21.03
2018-03-29T05:40:09.681Z,19.40
2018-03-29T05:42:43.058Z,20.47
2018-03-29T05:45:17.016Z,18.80
2018-03-29T05:47:49.482Z,17.53
2018-03-29T05:50:22.267Z,16.50
2018-03-29T05:52:54.851Z,16.33
2018-03-29T05:55:27.972Z,15.57
2018-03-29T05:58:00.460Z,15.33
2018-03-29T06:00:33.833Z,14.43
2018-03-29T06:03:06.426Z,14.03
2018-03-29T06:05:38.921Z,14.40
2018-03-29T06:08:11.522Z,14.70
2018-03-29T06:10:44.038Z,13.17
2018-03-29T06:13:16.628Z,13.47
2018-03-29T06:15:55.918Z,13.67
2018-03-29T06:18:31.478Z,13.70
2018-03-29T06:21:04.616Z,14.63
2018-03-29T06:23:37.746Z,14.83
2018-03-29T06:26:10.227Z,14.70
2018-03-29T06:28:42.959Z,15.73
2018-03-29T06:31:15.532Z,15.90
2018-03-29T06:33:48.133Z,16.53
2018-03-29T06:36:20.772Z,16.13
2018-03-29T06:38:53.528Z,14.87
2018-03-29T06:41:26.106Z,14.17
2018-03-29T06:43:58.700Z,15.20
2018-03-29T06:46:32.038Z,15.07
2018-03-29T06:49:04.846Z,15.50
2018-03-29T06:51:37.377Z,14.53
2018-03-29T06:54:09.854Z,14.10
2018-03-29T06:56:49.776Z,15.97
2018-03-29T06:59:22.401Z,15.13
2018-03-29T07:01:56.529Z,15.77
2018-03-29T07:04:29.427Z,14.47
2018-03-29T07:07:02.122Z,15.03
2018-03-29T07:09:34.803Z,15.00
2018-03-29T07:12:07.338Z,14.60
2018-03-29T07:14:40.458Z,14.77
2018-03-29T07:17:13.296Z,14.77
2018-03-29T07:19:45.818Z,13.23
2018-03-29T07:22:18.401Z,14.00
2018-03-29T07:24:50.819Z,15.37
2018-03-29T07:27:23.304Z,13.50
2018-03-29T07:29:55.805Z,13.63
2018-03-29T07:32:29.133Z,12.43
2018-03-29T07:35:01.680Z,13.73
2018-03-29T07:37:34.134Z,13.57
2018-03-29T07:40:06.772Z,13.80
2018-03-29T07:42:39.884Z,14.00
2018-03-29T07:45:12.278Z,14.07
2018-03-29T07:47:44.707Z,14.30
2018-03-29T07:50:17.893Z,13.67
2018-03-29T07:52:50.363Z,14.17
2018-03-29T07:55:23.055Z,13.87
2018-03-29T07:57:55.653Z,14.70
2018-03-29T08:00:28.085Z,14.67
2018-03-29T08:03:00.787Z,15.57
2018-03-29T08:05:33.334Z,13.67
2018-03-29T08:08:05.884Z,14.60
2018-03-29T08:10:39.211Z,16.53
2018-03-29T08:13:11.736Z,15.63
2018-03-29T08:15:51.275Z,18.37
2018-03-29T08:18:23.703Z,17.97
2018-03-29T08:20:56.181Z,16.83
2018-03-29T08:23:28.766Z,18.47
2018-03-29T08:26:02.057Z,17.90
2018-03-29T08:28:34.825Z,19.27
2018-03-29T08:31:07.399Z,19.60
2018-03-29T08:33:39.942Z,20.77
2018-03-29T08:36:12.662Z,21.37
2018-03-29T08:38:45.141Z,19.70
2018-03-29T08:41:17.848Z,19.37
2018-03-29T08:43:50.226Z,18.80
2018-03-29T08:46:23.589Z,19.90
2018-03-29T08:48:56.218Z,20.03
2018-03-29T08:51:29.042Z,21.30
2018-03-29T08:54:01.637Z,19.83
2018-03-29T08:56:34.418Z,19.97
2018-03-29T08:59:06.933Z,22.63
2018-03-29T09:01:39.504Z,22.70
2018-03-29T09:04:12.154Z,23.90
2018-03-29T09:06:44.820Z,22.03
2018-03-29T09:09:18.911Z,22.67
2018-03-29T09:11:51.597Z,21.10
2018-03-29T09:14:24.466Z,23.30
2018-03-29T09:16:57.152Z,22.33
2018-03-29T09:19:29.727Z,21.90
2018-03-29T09:22:02.425Z,21.77
2018-03-29T09:24:35.927Z,21.93
2018-03-29T09:27:09.314Z,23.63
2018-03-29T09:29:42.512Z,23.47
2018-03-29T09:32:15.594Z,23.03
2018-03-29T09:34:48.792Z,22.60
2018-03-29T09:37:21.942Z,23.47
2018-03-29T09:39:54.589Z,23.07
2018-03-29T09:42:27.202Z,24.17
2018-03-29T09:45:00.153Z,21.40
2018-03-29T09:47:32.761Z,22.10
2018-03-29T09:50:05.322Z,22.53
2018-03-29T09:52:38.002Z,23.23
2018-03-29T09:55:10.742Z,24.37
2018-03-29T09:57:43.329Z,23.03
2018-03-29T10:00:16.548Z,24.87
2018-03-29T10:02:54.107Z,25.30
2018-03-29T10:05:32.846Z,24.63
2018-03-29T10:08:05.392Z,25.00
2018-03-29T10:10:37.952Z,25.27
2018-03-29T10:13:10.533Z,25.50
2018-03-29T10:15:43.037Z,29.80
2018-03-29T10:18:15.580Z,28.77
2018-03-29T10:20:48.298Z,29.27
2018-03-29T10:23:20.719Z,27.13
2018-03-29T10:25:53.118Z,29.17
2018-03-29T10:28:25.625Z,25.00
2018-03-29T10:30:58.984Z,27.67
2018-03-29T10:33:32.177Z,20.43
2018-03-29T10:36:04.877Z,15.87
2018-03-29T10:38:37.554Z,21.90
2018-03-29T10:41:11.508Z,19.63
2018-03-29T10:43:44.118Z,21.50
2018-03-29T10:46:16.667Z,20.63
2018-03-29T10:48:49.154Z,21.27
2018-03-29T10:51:23.109Z,22.03
2018-03-29T10:53:55.594Z,21.37
2018-03-29T10:56:28.097Z,22.63
2018-03-29T10:59:01.214Z,17.97
2018-03-29T11:01:34.028Z,17.67
2018-03-29T11:04:06.718Z,15.63
2018-03-29T11:06:39.209Z,16.47
2018-03-29T11:09:11.971Z,15.73
2018-03-29T11:11:44.538Z,17.27
2018-03-29T11:14:17.175Z,18.33
2018-03-29T11:16:49.909Z,17.53
2018-03-29T11:19:22.542Z,20.67
2018-03-29T11:21:55.111Z,21.40
2018-03-29T11:24:27.662Z,21.10
2018-03-29T11:27:00.153Z,20.83
2018-03-29T11:29:32.788Z,21.10
2018-03-29T11:32:06.136Z,19.90
2018-03-29T11:34:38.655Z,21.77
2018-03-29T11:37:11.452Z,21.27
2018-03-29T11:39:43.974Z,21.67
2018-03-29T11:42:16.507Z,19.97
2018-03-29T11:44:49.157Z,19.40
2018-03-29T11:47:22.017Z,19.37
2018-03-29T11:49:54.779Z,20.80
2018-03-29T11:52:27.834Z,20.47
2018-03-29T11:55:00.329Z,22.40
2018-03-29T11:57:32.879Z,25.47
2018-03-29T12:00:05.991Z,25.93
2018-03-29T12:02:38.696Z,25.67
2018-03-29T12:05:11.232Z,26.43
2018-03-29T12:07:44.221Z,27.43
2018-03-29T12:10:16.863Z,26.80
2018-03-29T12:12:50.384Z,27.27
2018-03-29T12:15:22.892Z,25.30
2018-03-29T12:17:56.027Z,24.83
2018-03-29T12:20:29.151Z,23.23
2018-03-29T12:23:02.372Z,21.30
2018-03-29T12:25:35.732Z,22.03
2018-03-29T12:28:08.311Z,21.77
2018-03-29T12:30:40.657Z,21.33
2018-03-29T12:33:13.054Z,19.93
2018-03-29T12:35:45.653Z,15.90
2018-03-29T12:38:18.317Z,13.50
2018-03-29T12:40:51.663Z,12.13
2018-03-29T12:43:24.505Z,11.13
2018-03-29T12:45:57.864Z,10.57
2018-03-29T12:48:30.819Z,10.93
2018-03-29T12:51:03.530Z,10.97
2018-03-29T12:53:36.273Z,10.87
2018-03-29T12:56:18.177Z,11.00
2018-03-29T12:58:50.744Z,11.10
2018-03-29T13:01:23.314Z,10.93
2018-03-29T13:03:55.897Z,11.93
2018-03-29T13:06:28.612Z,12.87
2018-03-29T13:09:01.183Z,13.37
2018-03-29T13:11:33.808Z,14.50
2018-03-29T13:14:06.312Z,14.10
2018-03-29T13:16:39.192Z,13.93
2018-03-29T13:19:11.718Z,13.97
2018-03-29T13:21:44.084Z,12.83
2018-03-29T13:24:17.262Z,12.53
2018-03-29T13:26:50.021Z,13.87
2018-03-29T13:29:22.597Z,13.83
2018-03-29T13:32:02.096Z,12.63
2018-03-29T13:34:34.533Z,15.17
2018-03-29T13:37:07.700Z,13.57
2018-03-29T13:39:41.147Z,14.77
2018-03-29T13:42:13.623Z,14.03
2018-03-29T13:44:46.204Z,12.30
2018-03-29T13:47:18.962Z,13.83
2018-03-29T13:49:51.603Z,13.50
2018-03-29T13:52:24.214Z,14.07
2018-03-29T13:54:56.579Z,13.20
2018-03-29T13:57:29.833Z,13.67
2018-03-29T14:00:02.718Z,13.27
2018-03-29T14:02:35.317Z,13.60
2018-03-29T14:05:07.884Z,14.77
2018-03-29T14:07:40.670Z,13.90
2018-03-29T14:10:13.314Z,14.13
2018-03-29T14:12:45.989Z,14.20
2018-03-29T14:15:18.559Z,13.67
2018-03-29T14:17:51.168Z,14.07
2018-03-29T14:20:23.854Z,12.90
2018-03-29T14:22:56.644Z,13.40
2018-03-29T14:25:29.223Z,12.73
2018-03-29T14:28:02.054Z,8.10
2018-03-29T14:30:34.817Z,6.20
2018-03-29T14:33:07.623Z,6.50
2018-03-29T14:35:40.088Z,5.67
2018-03-29T14:38:12.597Z,5.17
2018-03-29T14:40:45.398Z,5.30
2018-03-29T14:43:17.904Z,4.87
2018-03-29T14:45:50.587Z,4.93
2018-03-29T14:48:23.242Z,5.10
2018-03-29T14:50:56.048Z,5.17
2018-03-29T14:53:28.646Z,5.33
2018-03-29T14:56:01.497Z,6.50
2018-03-29T14:58:34.207Z,6.70
2018-03-29T15:01:06.991Z,7.60
2018-03-29T15:03:40.297Z,7.97
2018-03-29T15:06:13.103Z,8.00
2018-03-29T15:08:45.709Z,8.00
2018-03-29T15:11:18.318Z,7.87
2018-03-29T15:13:50.825Z,7.67
2018-03-29T15:16:23.462Z,8.37
2018-03-29T15:18:56.261Z,7.97
2018-03-29T15:21:29.588Z,7.73
2018-03-29T15:24:02.268Z,8.33
2018-03-29T15:26:35.137Z,8.10
2018-03-29T15:29:08.509Z,8.07
2018-03-29T15:31:41.253Z,7.97
2018-03-29T15:34:15.309Z,7.97
2018-03-29T15:36:47.786Z,7.77
2018-03-29T15:39:20.513Z,7.20
2018-03-29T15:41:53.022Z,7.20
2018-03-29T15:44:25.815Z,7.60
2018-03-29T15:46:58.442Z,7.80
2018-03-29T15:49:31.247Z,8.00
2018-03-29T15:52:04.109Z,8.00
2018-03-29T15:54:37.262Z,8.07
2018-03-29T15:57:10.570Z,6.90
2018-03-29T15:59:43.007Z,7.73
2018-03-29T16:02:15.728Z,6.90
2018-03-29T16:04:48.300Z,6.33
2018-03-29T16:07:21.131Z,6.80
2018-03-29T16:09:53.649Z,5.70
2018-03-29T16:12:26.474Z,5.10
2018-03-29T16:14:58.954Z,5.70
2018-03-29T16:17:31.572Z,5.23
2018-03-29T16:20:04.129Z,4.30
2018-03-29T16:22:36.932Z,4.53
2018-03-29T16:25:09.429Z,4.20
2018-03-29T16:27:42.117Z,4.40
2018-03-29T16:30:14.912Z,4.10
2018-03-29T16:32:47.615Z,4.70
2018-03-29T16:35:19.968Z,4.87
2018-03-29T16:37:52.575Z,4.03
2018-03-29T16:40:25.048Z,4.80
2018-03-29T16:42:57.877Z,4.70
2018-03-29T16:45:30.399Z,4.40
2018-03-29T16:48:03.162Z,4.63
2018-03-29T16:50:35.779Z,4.90
2018-03-29T16:53:09.147Z,4.73
2018-03-29T16:55:41.534Z,4.97
2018-03-29T16:58:14.123Z,4.87
2018-03-29T17:00:46.680Z,4.87
2018-03-29T17:03:20.283Z,6.27
2018-03-29T17:05:52.844Z,5.40
2018-03-29T17:08:25.279Z,7.00
2018-03-29T17:10:57.962Z,6.47
2018-03-29T17:13:30.811Z,7.40
2018-03-29T17:16:04.012Z,7.30
2018-03-29T17:18:36.874Z,6.10
2018-03-29T17:21:09.710Z,7.07
2018-03-29T17:23:43.127Z,7.70
2018-03-29T17:26:15.904Z,7.13
2018-03-29T17:28:48.329Z,6.90
2018-03-29T17:31:20.933Z,6.63
2018-03-29T17:33:54.045Z,6.53
2018-03-29T17:36:27.477Z,7.83
2018-03-29T17:38:59.964Z,8.87
2018-03-29T17:41:32.469Z,7.50
2018-03-29T17:44:04.982Z,9.23
2018-03-29T17:46:37.563Z,10.47
2018-03-29T17:49:10.010Z,8.97
2018-03-29T17:51:42.653Z,8.30
2018-03-29T17:54:15.214Z,8.60
2018-03-29T17:56:47.912Z,7.60
2018-03-29T17:59:21.344Z,8.27
2018-03-29T18:01:54.096Z,8.23
2018-03-29T18:04:26.658Z,7.90
2018-03-29T18:06:59.437Z,8.77
2018-03-29T18:09:31.949Z,7.97
2018-03-29T18:12:04.648Z,9.40
2018-03-29T18:14:37.274Z,8.93
2018-03-29T18:17:09.803Z,9.00
2018-03-29T18:19:43.019Z,8.83
2018-03-29T18:22:16.325Z,9.20
2018-03-29T18:24:48.974Z,8.10
2018-03-29T18:27:21.509Z,8.30
2018-03-29T18:29:54.889Z,9.43
2018-03-29T18:32:27.552Z,9.70
2018-03-29T18:35:00.237Z,9.53
2018-03-29T18:37:33.017Z,9.53
2018-03-29T18:40:05.509Z,9.57
2018-03-29T18:42:38.241Z,10.10
2018-03-29T18:45:11.128Z,9.70
2018-03-29T18:47:43.588Z,10.80
2018-03-29T18:50:16.333Z,11.13
2018-03-29T18:52:49.569Z,10.17
2018-03-29T18:55:22.733Z,9.93
2018-03-29T18:57:55.243Z,10.17
2018-03-29T19:00:27.917Z,11.30
2018-03-29T19:03:00.750Z,12.67
2018-03-29T19:05:34.308Z,12.27
2018-03-29T19:08:06.930Z,11.67
2018-03-29T19:10:39.699Z,12.37
2018-03-29T19:13:12.134Z,13.20
2018-03-29T19:15:44.802Z,13.83
2018-03-29T19:18:17.471Z,16.43
2018-03-29T19:20:50.084Z,16.50
2018-03-29T19:23:22.684Z,14.53
2018-03-29T19:25:55.344Z,16.63
2018-03-29T19:28:27.796Z,14.90
2018-03-29T19:31:01.195Z,15.07
2018-03-29T19:33:34.922Z,13.83
2018-03-29T19:36:07.499Z,15.83
2018-03-29T19:38:40.250Z,13.50
2018-03-29T19:41:12.959Z,16.40
2018-03-29T19:43:46.247Z,13.33
2018-03-29T19:46:18.877Z,13.77
2018-03-29T19:48:51.384Z,14.30
2018-03-29T19:51:25.058Z,15.90
2018-03-29T19:53:57.739Z,17.00
2018-03-29T19:56:30.288Z,14.00
2018-03-29T19:59:03.082Z,16.20
2018-03-29T20:01:35.699Z,13.47
2018-03-29T20:04:08.374Z,13.90
2018-03-29T20:06:40.913Z,14.73
2018-03-29T20:09:13.681Z,14.20
2018-03-29T20:11:46.270Z,14.80
2018-03-29T20:14:19.079Z,15.20
2018-03-29T20:16:51.696Z,13.90
2018-03-29T20:19:25.109Z,13.10
2018-03-29T20:21:57.705Z,13.03
2018-03-29T20:24:30.388Z,12.70
2018-03-29T20:27:03.049Z,12.90
2018-03-29T20:29:35.830Z,12.97
2018-03-29T20:32:08.312Z,13.37
2018-03-29T20:34:41.125Z,13.93
2018-03-29T20:37:13.706Z,15.10
2018-03-29T20:39:46.670Z,13.50
2018-03-29T20:42:19.299Z,16.07
2018-03-29T20:44:51.824Z,15.27
2018-03-29T20:47:24.558Z,12.30
2018-03-29T20:49:57.080Z,14.67
2018-03-29T20:52:29.659Z,15.53
2018-03-29T20:55:02.465Z,15.47
2018-03-29T20:57:35.171Z,15.33
2018-03-29T21:00:07.813Z,17.03
2018-03-29T21:02:41.265Z,17.07
2018-03-29T21:05:13.869Z,14.50
2018-03-29T21:07:47.107Z,14.67
2018-03-29T21:10:19.814Z,14.33
2018-03-29T21:12:52.387Z,16.87
2018-03-29T21:15:25.194Z,15.43
2018-03-29T21:17:57.675Z,17.27
2018-03-29T21:20:30.425Z,17.07
2018-03-29T21:23:03.383Z,17.50
2018-03-29T21:25:36.038Z,16.27
2018-03-29T21:28:08.719Z,16.07
2018-03-29T21:30:41.277Z,15.47
2018-03-29T21:33:14.036Z,16.57
2018-03-29T21:35:46.605Z,13.83
2018-03-29T21:38:20.074Z,12.50
2018-03-29T21:40:52.736Z,13.40
2018-03-29T21:43:25.256Z,13.97
2018-03-29T21:45:58.661Z,15.03
2018-03-29T21:48:31.185Z,13.57
2018-03-29T21:51:03.922Z,13.40
2018-03-29T21:53:36.501Z,12.57
2018-03-29T21:56:09.309Z,14.47
2018-03-29T21:58:41.903Z,15.70
2018-03-29T22:01:14.905Z,15.47
2018-03-29T22:03:47.455Z,14.93
2018-03-29T22:06:20.316Z,14.67
2018-03-29T22:08:52.919Z,15.87
2018-03-29T22:11:25.673Z,15.63
2018-03-29T22:13:58.192Z,16.73
2018-03-29T22:16:30.902Z,18.07
2018-03-29T22:19:04.609Z,16.80
2018-03-29T22:21:37.371Z,14.43
2018-03-29T22:24:10.044Z,15.43
2018-03-29T22:26:43.540Z,17.10
2018-03-29T22:29:18.406Z,17.63
2018-03-29T22:31:50.817Z,17.97
2018-03-29T22:34:23.556Z,16.70
2018-03-29T22:36:56.364Z,15.53
2018-03-29T22:39:28.829Z,17.00
2018-03-29T22:42:01.258Z,13.27
2018-03-29T22:44:33.649Z,14.53
2018-03-29T22:47:07.720Z,13.97
2018-03-29T22:49:41.051Z,15.33
2018-03-29T22:52:14.360Z,14.13
2018-03-29T22:54:47.114Z,12.73
2018-03-29T22:57:19.736Z,14.73
2018-03-29T22:59:52.238Z,15.67
2018-03-29T23:02:24.846Z,15.30
2018-03-29T23:04:57.489Z,14.17
2018-03-29T23:07:30.845Z,16.07
2018-03-29T23:10:03.508Z,15.47
2018-03-29T23:12:37.729Z,13.97
2018-03-29T23:15:11.119Z,15.33
2018-03-29T23:17:43.503Z,15.07
2018-03-29T23:20:16.193Z,15.87
2018-03-29T23:22:49.554Z,15.97
2018-03-29T23:25:22.612Z,15.47
2018-03-29T23:27:55.156Z,16.17
2018-03-29T23:30:27.701Z,15.70
2018-03-29T23:33:00.345Z,16.20
2018-03-29T23:35:32.704Z,14.23
2018-03-29T23:38:05.202Z,15.27
2018-03-29T23:40:38.505Z,15.30
2018-03-29T23:43:11.093Z,15.20
2018-03-29T23:45:43.716Z,15.90
2018-03-29T23:48:16.366Z,13.17
2018-03-29T23:50:49.505Z,15.63
2018-03-29T23:53:22.845Z,14.33
2018-03-29T23:55:55.530Z,14.23
2018-03-29T23:58:28.191Z,15.20
